createdAt,value
2023-01-09T00:00:54.612Z,30.65
2023-01-09T00:04:00.270Z,25.13
2023-01-09T00:07:08.069Z,32.33
2023-01-09T00:10:15.770Z,36.35
2023-01-09T00:16:26.870Z,25.73
2023-01-09T00:19:32.091Z,30.45
2023-01-09T00:22:39.970Z,29.27
2023-01-09T00:25:45.363Z,31.08
2023-01-09T00:28:51.486Z,31.08
2023-01-09T00:31:56.815Z,25.67
2023-01-09T00:35:02.210Z,30.27
2023-01-09T00:38:10.487Z,27.38
2023-01-09T00:41:19.757Z,27.20
2023-01-09T00:44:26.371Z,26.65
2023-01-09T00:47:32.801Z,29.75
2023-01-09T00:50:38.569Z,34.92
2023-01-09T00:53:46.773Z,27.33
2023-01-09T00:56:53.154Z,22.92
2023-01-09T00:59:58.490Z,33.92
2023-01-09T01:03:03.824Z,27.58
2023-01-09T01:06:21.878Z,26.42
2023-01-09T01:09:32.769Z,24.98
2023-01-09T01:15:43.465Z,25.60
2023-01-09T01:18:49.169Z,27.70
2023-01-09T01:21:54.592Z,29.45
2023-01-09T01:25:02.915Z,23.88
2023-01-09T01:28:09.107Z,28.38
2023-01-09T01:31:19.354Z,28.00
2023-01-09T01:34:24.707Z,24.55
2023-01-09T01:37:30.269Z,20.27
2023-01-09T01:40:38.535Z,27.15
2023-01-09T01:43:53.497Z,22.38
2023-01-09T01:47:00.097Z,28.25
2023-01-09T01:50:06.647Z,26.00
2023-01-09T01:53:14.018Z,22.05
2023-01-09T01:56:24.720Z,24.60
2023-01-09T01:59:32.292Z,27.88
2023-01-09T02:02:37.539Z,23.10
2023-01-09T02:05:42.960Z,22.75
2023-01-09T02:08:48.775Z,32.85
2023-01-09T02:12:01.079Z,34.90
2023-01-09T02:15:07.343Z,30.13
2023-01-09T02:18:28.595Z,22.38
2023-01-09T02:21:40.158Z,24.85
2023-01-09T02:24:57.958Z,31.10
2023-01-09T02:28:15.987Z,29.58
2023-01-09T02:31:25.600Z,33.85
2023-01-09T02:34:35.562Z,30.20
2023-01-09T02:37:47.171Z,30.73
2023-01-09T02:40:56.882Z,34.33
2023-01-09T02:44:20.096Z,35.90
2023-01-09T02:47:42.151Z,37.40
2023-01-09T02:50:51.135Z,29.83
2023-01-09T02:54:06.437Z,32.97
2023-01-09T02:57:18.110Z,33.38
2023-01-09T03:00:28.685Z,31.80
2023-01-09T03:03:41.299Z,32.72
2023-01-09T03:06:49.776Z,35.65
2023-01-09T03:09:58.631Z,33.15
2023-01-09T03:13:04.818Z,33.38
2023-01-09T03:16:12.160Z,28.50
2023-01-09T03:19:22.401Z,34.53
2023-01-09T03:22:28.268Z,29.70
2023-01-09T03:25:34.378Z,27.27
2023-01-09T03:28:39.811Z,28.55
2023-01-09T03:31:45.228Z,27.17
2023-01-09T03:34:53.243Z,24.17
2023-01-09T03:37:59.519Z,20.52
2023-01-09T03:41:04.736Z,26.70
2023-01-09T03:44:10.199Z,31.85
2023-01-09T03:47:15.505Z,25.80
2023-01-09T03:50:23.961Z,27.92
2023-01-09T03:53:29.995Z,27.17
2023-01-09T03:56:35.628Z,25.55
2023-01-09T03:59:41.529Z,30.17
2023-01-09T04:02:47.139Z,25.92
2023-01-09T04:05:55.466Z,22.58
2023-01-09T04:09:01.021Z,28.23
2023-01-09T04:12:06.280Z,19.15
2023-01-09T04:15:12.555Z,24.08
2023-01-09T04:18:18.031Z,24.80
2023-01-09T04:21:26.226Z,31.40
2023-01-09T04:24:32.630Z,22.77
2023-01-09T04:27:38.579Z,28.77
2023-01-09T04:30:44.053Z,19.33
2023-01-09T04:33:49.607Z,26.55
2023-01-09T04:36:59.169Z,25.70
2023-01-09T04:40:06.597Z,29.63
2023-01-09T04:43:11.726Z,23.58
2023-01-09T04:46:17.183Z,22.83
2023-01-09T04:49:22.622Z,23.52
2023-01-09T04:52:31.430Z,22.80
2023-01-09T04:55:37.037Z,23.73
2023-01-09T04:58:42.267Z,20.80
2023-01-09T05:01:47.506Z,28.85
2023-01-09T05:04:53.077Z,22.70
2023-01-09T05:08:00.782Z,32.22
2023-01-09T05:11:06.216Z,30.45
2023-01-09T05:14:13.139Z,24.52
2023-01-09T05:17:18.518Z,29.70
2023-01-09T05:20:23.591Z,26.73
2023-01-09T05:23:31.696Z,33.55
2023-01-09T05:26:37.023Z,30.60
2023-01-09T05:29:42.438Z,24.33
2023-01-09T05:32:47.879Z,21.52
2023-01-09T05:35:53.177Z,21.88
2023-01-09T05:39:02.817Z,33.50
2023-01-09T05:42:08.673Z,32.53
2023-01-09T05:45:14.593Z,27.65
2023-01-09T05:48:20.451Z,24.83
2023-01-09T05:51:25.623Z,28.45
2023-01-09T05:54:34.088Z,30.98
2023-01-09T05:57:39.489Z,30.08
2023-01-09T06:00:44.781Z,27.08
2023-01-09T06:03:50.415Z,29.50
2023-01-09T06:06:56.490Z,26.98
2023-01-09T06:10:04.885Z,29.95
2023-01-09T06:13:10.316Z,34.42
2023-01-09T06:16:16.443Z,32.60
2023-01-09T06:19:22.043Z,36.65
2023-01-09T06:22:27.200Z,30.65
2023-01-09T06:25:35.691Z,32.55
2023-01-09T06:28:40.931Z,31.35
2023-01-09T06:31:46.417Z,29.13
2023-01-09T06:34:51.945Z,30.95
2023-01-09T06:37:57.827Z,31.27
2023-01-09T06:41:05.843Z,30.40
2023-01-09T06:44:11.436Z,36.33
2023-01-09T06:47:17.160Z,32.45
2023-01-09T06:50:22.508Z,25.40
2023-01-09T06:53:28.421Z,23.73
2023-01-09T06:56:36.616Z,27.73
2023-01-09T06:59:42.119Z,26.90
2023-01-09T07:02:47.440Z,27.65
2023-01-09T07:05:52.781Z,32.55
2023-01-09T07:08:58.122Z,28.83
2023-01-09T07:12:06.029Z,24.40
2023-01-09T07:18:16.918Z,24.25
2023-01-09T07:21:22.376Z,23.13
2023-01-09T07:24:27.869Z,18.17
2023-01-09T07:27:36.063Z,25.23
2023-01-09T07:30:41.815Z,24.05
2023-01-09T07:33:46.867Z,16.02
2023-01-09T07:36:52.306Z,23.80
2023-01-09T07:39:57.723Z,19.92
2023-01-09T07:43:05.501Z,15.48
2023-01-09T07:46:10.568Z,21.27
2023-01-09T07:49:16.199Z,19.30
2023-01-09T07:52:21.510Z,18.95
2023-01-09T07:55:26.844Z,24.23
2023-01-09T07:58:34.787Z,25.85
2023-01-09T08:01:40.453Z,21.92
2023-01-09T08:04:45.898Z,26.88
2023-01-09T08:07:51.930Z,22.58
2023-01-09T08:10:57.422Z,18.25
2023-01-09T08:14:05.555Z,21.95
2023-01-09T08:17:11.999Z,17.75
2023-01-09T08:20:18.096Z,18.98
2023-01-09T08:23:23.800Z,21.17
2023-01-09T08:26:29.213Z,18.10
2023-01-09T08:29:37.360Z,20.40
2023-01-09T08:32:42.823Z,18.60
2023-01-09T08:35:48.247Z,20.08
2023-01-09T08:38:53.590Z,19.88
2023-01-09T08:42:11.213Z,17.05
2023-01-09T08:45:32.016Z,19.65
2023-01-09T08:48:37.202Z,23.30
2023-01-09T08:51:42.861Z,21.40
2023-01-09T08:54:48.259Z,16.33
2023-01-09T08:57:54.162Z,16.73
2023-01-09T09:01:02.129Z,22.95
2023-01-09T09:04:07.787Z,20.77
2023-01-09T09:07:13.338Z,17.05
2023-01-09T09:10:18.897Z,23.25
2023-01-09T09:13:24.490Z,24.25
2023-01-09T09:16:32.526Z,24.15
2023-01-09T09:22:44.940Z,24.05
2023-01-09T09:25:50.459Z,22.23
2023-01-09T09:28:55.691Z,18.13
2023-01-09T09:32:03.879Z,18.75
2023-01-09T09:35:09.999Z,19.42
2023-01-09T09:38:15.323Z,19.85
2023-01-09T09:41:39.877Z,20.95
2023-01-09T09:44:54.686Z,20.38
2023-01-09T09:48:10.023Z,23.85
2023-01-09T09:51:20.609Z,19.73
2023-01-09T09:54:29.831Z,22.23
2023-01-09T09:57:37.524Z,26.50
2023-01-09T10:00:43.000Z,21.65
2023-01-09T10:03:52.175Z,23.40
2023-01-09T10:07:00.156Z,27.60
2023-01-09T10:10:06.472Z,24.92
2023-01-09T10:13:24.512Z,25.70
2023-01-09T10:16:36.391Z,29.55
2023-01-09T10:19:52.932Z,28.05
2023-01-09T10:23:03.632Z,28.98
2023-01-09T10:26:13.267Z,29.02
2023-01-09T10:29:43.160Z,25.70
2023-01-09T10:32:56.643Z,28.38
2023-01-09T10:36:21.991Z,21.02
2023-01-09T10:39:29.542Z,20.13
2023-01-09T10:42:38.246Z,24.17
2023-01-09T10:45:47.338Z,22.98
2023-01-09T10:48:55.207Z,21.45
2023-01-09T10:52:07.808Z,20.50
2023-01-09T10:55:20.210Z,27.75
2023-01-09T10:58:26.238Z,19.10
2023-01-09T11:01:32.739Z,18.20
2023-01-09T11:04:40.688Z,24.98
2023-01-09T11:07:49.646Z,31.52
2023-01-09T11:10:56.051Z,27.08
2023-01-09T11:14:07.307Z,28.70
2023-01-09T11:17:20.847Z,23.55
2023-01-09T11:20:28.566Z,27.80
2023-01-09T11:23:36.822Z,28.17
2023-01-09T11:26:42.393Z,24.35
2023-01-09T11:29:47.952Z,22.35
2023-01-09T11:32:53.477Z,29.00
2023-01-09T11:36:00.714Z,25.27
2023-01-09T11:39:08.700Z,27.35
2023-01-09T11:42:42.770Z,23.20
2023-01-09T11:46:00.642Z,32.50
2023-01-09T11:49:07.860Z,34.05
2023-01-09T11:52:19.840Z,28.05
2023-01-09T11:55:34.839Z,29.23
2023-01-09T11:58:47.153Z,25.35
2023-01-09T12:02:07.347Z,29.33
2023-01-09T12:05:18.706Z,24.05
2023-01-09T12:08:31.179Z,24.23
2023-01-09T12:11:42.110Z,21.08
2023-01-09T12:14:52.144Z,21.17
2023-01-09T12:18:14.054Z,29.67
2023-01-09T12:21:28.597Z,27.75
2023-01-09T12:24:48.572Z,21.90
2023-01-09T12:28:02.728Z,21.33
2023-01-09T12:31:16.074Z,24.73
2023-01-09T12:34:29.418Z,23.35
2023-01-09T12:37:55.293Z,17.02
2023-01-09T12:41:11.414Z,22.70
2023-01-09T12:44:35.591Z,32.10
2023-01-09T12:47:46.218Z,21.30
2023-01-09T12:51:03.430Z,19.02
2023-01-09T12:54:12.468Z,18.45
2023-01-09T12:57:22.620Z,19.77
2023-01-09T13:00:31.875Z,26.02
2023-01-09T13:03:39.927Z,17.38
2023-01-09T13:06:49.238Z,18.25
2023-01-09T13:09:59.757Z,18.48
2023-01-09T13:13:09.711Z,22.27
2023-01-09T13:16:19.450Z,22.15
2023-01-09T13:19:27.813Z,19.88
2023-01-09T13:22:33.126Z,23.73
2023-01-09T13:25:46.971Z,23.40
2023-01-09T13:28:54.230Z,19.05
2023-01-09T13:32:08.861Z,25.90
2023-01-09T13:35:18.656Z,17.58
2023-01-09T13:38:25.276Z,20.75
2023-01-09T13:41:45.802Z,17.53
2023-01-09T13:44:53.254Z,16.48
2023-01-09T13:48:18.111Z,15.90
2023-01-09T13:51:44.271Z,17.25
2023-01-09T13:55:19.246Z,23.20
2023-01-09T13:58:28.014Z,19.02
2023-01-09T14:01:43.645Z,17.83
2023-01-09T14:04:49.081Z,16.15
2023-01-09T14:07:55.718Z,18.60
2023-01-09T14:11:02.232Z,17.67
2023-01-09T14:14:18.735Z,19.95
2023-01-09T14:17:28.983Z,33.22
2023-01-09T14:20:39.267Z,21.02
2023-01-09T14:23:53.759Z,18.13
2023-01-09T14:27:00.825Z,21.10
2023-01-09T14:30:21.819Z,23.00
2023-01-09T14:33:33.300Z,23.80
2023-01-09T14:36:39.308Z,21.48
2023-01-09T14:39:47.750Z,18.85
2023-01-09T14:42:55.677Z,19.83
2023-01-09T14:46:02.919Z,21.52
2023-01-09T14:49:17.972Z,24.77
2023-01-09T14:52:25.359Z,22.38
2023-01-09T14:55:33.194Z,17.73
2023-01-09T14:58:39.508Z,26.05
2023-01-09T15:01:47.220Z,22.38
2023-01-09T15:08:01.717Z,19.83
2023-01-09T15:11:07.399Z,24.30
2023-01-09T15:14:20.667Z,19.38
2023-01-09T15:17:28.294Z,25.38
2023-01-09T15:23:41.568Z,26.80
2023-01-09T15:26:54.673Z,21.92
2023-01-09T15:29:59.974Z,27.20
2023-01-09T15:33:08.709Z,22.73
2023-01-09T15:36:16.127Z,27.65
2023-01-09T15:42:42.556Z,25.15
2023-01-09T15:45:48.537Z,24.15
2023-01-09T15:48:56.720Z,22.75
2023-01-09T15:52:02.038Z,29.13
2023-01-09T15:55:18.625Z,21.10
2023-01-09T15:58:31.399Z,27.00
2023-01-09T16:01:37.835Z,26.00
2023-01-09T16:04:44.330Z,23.95
2023-01-09T16:07:50.074Z,22.65
2023-01-09T16:10:56.888Z,22.02
2023-01-09T16:14:07.429Z,27.60
2023-01-09T16:17:18.343Z,26.02
2023-01-09T16:20:28.024Z,22.65
2023-01-09T16:23:34.271Z,26.27
2023-01-09T16:26:40.012Z,22.95
2023-01-09T16:29:51.669Z,33.13
2023-01-09T16:32:57.381Z,22.73
2023-01-09T16:36:03.607Z,22.52
2023-01-09T16:39:11.171Z,24.65
2023-01-09T16:42:29.009Z,22.88
2023-01-09T16:45:40.804Z,20.58
2023-01-09T16:48:46.570Z,18.65
2023-01-09T16:51:52.227Z,23.55
2023-01-09T16:54:57.943Z,18.58
2023-01-09T16:58:04.539Z,22.75
2023-01-09T17:01:13.813Z,17.80
2023-01-09T17:04:20.798Z,19.20
2023-01-09T17:07:28.095Z,15.65
2023-01-09T17:10:33.643Z,20.40
2023-01-09T17:13:39.323Z,20.20
2023-01-09T17:16:49.044Z,15.27
2023-01-09T17:19:54.541Z,21.42
2023-01-09T17:23:00.019Z,21.23
2023-01-09T17:26:18.282Z,17.80
2023-01-09T17:29:24.220Z,21.40
2023-01-09T17:32:33.241Z,17.20
2023-01-09T17:35:39.158Z,17.88
2023-01-09T17:38:44.473Z,13.88
2023-01-09T17:41:50.333Z,19.95
2023-01-09T17:44:56.774Z,15.52
2023-01-09T17:48:04.682Z,17.92
2023-01-09T17:51:10.045Z,21.23
2023-01-09T17:54:19.223Z,19.73
2023-01-09T17:57:25.550Z,13.57
2023-01-09T18:00:33.238Z,16.05
2023-01-09T18:03:41.239Z,16.83
2023-01-09T18:06:48.511Z,20.98
2023-01-09T18:09:53.754Z,15.23
2023-01-09T18:12:59.745Z,19.50
2023-01-09T18:16:05.448Z,15.45
2023-01-09T18:19:14.006Z,13.05
2023-01-09T18:22:19.464Z,17.40
2023-01-09T18:25:25.104Z,15.32
2023-01-09T18:28:31.209Z,14.50
2023-01-09T18:31:36.831Z,16.58
2023-01-09T18:34:44.708Z,14.60
2023-01-09T18:37:50.426Z,14.30
2023-01-09T18:41:01.384Z,17.02
2023-01-09T18:44:06.699Z,13.82
2023-01-09T18:47:12.708Z,17.45
2023-01-09T18:50:20.891Z,14.00
2023-01-09T18:53:26.255Z,13.55
2023-01-09T18:56:31.756Z,14.57
2023-01-09T18:59:37.269Z,18.40
2023-01-09T19:02:42.875Z,12.75
2023-01-09T19:05:51.102Z,13.25
2023-01-09T19:08:57.909Z,15.60
2023-01-09T19:12:02.979Z,18.00
2023-01-09T19:15:11.948Z,15.23
2023-01-09T19:18:18.208Z,10.82
2023-01-09T19:21:27.092Z,14.27
2023-01-09T19:24:33.205Z,19.33
2023-01-09T19:27:38.849Z,12.45
2023-01-09T19:30:44.244Z,13.00
2023-01-09T19:33:49.826Z,17.13
2023-01-09T19:36:57.745Z,14.23
2023-01-09T19:40:03.066Z,16.02
2023-01-09T19:43:08.984Z,12.25
2023-01-09T19:46:16.626Z,14.55
2023-01-09T19:49:22.308Z,13.15
2023-01-09T19:52:30.189Z,16.23
2023-01-09T19:55:36.357Z,14.15
2023-01-09T19:58:41.996Z,15.90
2023-01-09T20:01:48.230Z,16.58
2023-01-09T20:04:53.738Z,10.98
2023-01-09T20:08:03.769Z,13.93
2023-01-09T20:11:09.595Z,14.13
2023-01-09T20:14:16.096Z,17.05
2023-01-09T20:17:21.470Z,17.23
2023-01-09T20:20:26.979Z,16.75
2023-01-09T20:23:36.374Z,15.38
2023-01-09T20:26:42.564Z,12.35
2023-01-09T20:29:48.220Z,15.85
2023-01-09T20:32:54.209Z,14.05
2023-01-09T20:36:03.699Z,13.93
2023-01-09T20:39:13.363Z,16.42
2023-01-09T20:42:18.599Z,16.73
2023-01-09T20:45:24.297Z,9.80
2023-01-09T20:48:29.832Z,11.75
2023-01-09T20:51:36.014Z,13.43
2023-01-09T20:54:45.564Z,15.05
2023-01-09T20:57:51.111Z,13.30
2023-01-09T21:00:56.319Z,14.80
2023-01-09T21:04:03.487Z,13.57
2023-01-09T21:07:11.036Z,16.98
2023-01-09T21:10:19.203Z,16.05
2023-01-09T21:13:24.609Z,12.02
2023-01-09T21:16:30.535Z,14.20
2023-01-09T21:19:36.166Z,15.35
2023-01-09T21:22:41.463Z,13.98
2023-01-09T21:25:49.489Z,18.83
2023-01-09T21:28:55.346Z,18.35
2023-01-09T21:32:01.059Z,18.85
2023-01-09T21:35:07.327Z,21.92
2023-01-09T21:38:12.672Z,23.23
2023-01-09T21:41:34.018Z,22.88
2023-01-09T21:44:51.637Z,26.60
2023-01-09T21:47:57.008Z,25.40
2023-01-09T21:51:05.218Z,21.30
2023-01-09T21:54:11.046Z,18.98
2023-01-09T21:57:19.111Z,23.70
2023-01-09T22:00:28.075Z,24.63
2023-01-09T22:03:33.641Z,20.25
2023-01-09T22:06:38.985Z,16.70
2023-01-09T22:09:44.774Z,16.95
2023-01-09T22:13:07.464Z,17.77
2023-01-09T22:16:13.240Z,19.27
2023-01-09T22:19:20.671Z,16.13
2023-01-09T22:22:26.377Z,12.25
2023-01-09T22:25:31.571Z,15.70
2023-01-09T22:28:39.518Z,17.77
2023-01-09T22:31:45.290Z,15.77
2023-01-09T22:34:50.914Z,12.27
2023-01-09T22:37:56.390Z,15.38
2023-01-09T22:41:01.599Z,14.57
2023-01-09T22:44:09.856Z,13.88
2023-01-09T22:47:15.495Z,19.73
2023-01-09T22:50:20.856Z,17.52
2023-01-09T22:53:26.170Z,12.75
2023-01-09T22:56:32.457Z,14.23
2023-01-09T22:59:40.454Z,14.98
2023-01-09T23:02:45.757Z,11.55
2023-01-09T23:05:51.365Z,12.77
2023-01-09T23:08:56.596Z,20.75
2023-01-09T23:12:06.052Z,18.63
2023-01-09T23:15:13.993Z,11.65
2023-01-09T23:18:19.736Z,17.05
2023-01-09T23:21:24.986Z,10.32
2023-01-09T23:24:31.146Z,11.95
2023-01-09T23:27:36.662Z,15.63
2023-01-09T23:30:44.397Z,15.82
2023-01-09T23:33:49.753Z,12.75
2023-01-09T23:36:55.905Z,12.70
2023-01-09T23:40:01.428Z,9.88
2023-01-09T23:43:10.670Z,12.50
2023-01-09T23:46:18.854Z,13.73
2023-01-09T23:49:24.376Z,11.93
2023-01-09T23:52:29.613Z,11.13
2023-01-09T23:55:34.917Z,9.38
2023-01-09T23:58:40.494Z,11.05
